Time;durP1;ratioP1;P1;durP2;ratioP2;P2;SDS_P1;SDS_P2;PMS_P1;PMS_P2;Temp;Humidity;BMP_temperature;BMP_pressure;BME280_temperature;BME280_humidity;BME280_pressure;Samples;Min_cycle;Max_cycle;Signal;HPM_P1;HPM_P2
2021/04/24 00:00:06;;;;;;;6.25;5.07;;;9.30;46.20;;;;;;5089752;28;20704;-79
2021/04/24 00:02:32;;;;;;;7.15;5.70;;;9.30;46.30;;;;;;5093626;28;20217;-79
2021/04/24 00:05:00;;;;;;;6.13;4.18;;;9.30;46.70;;;;;;5091426;28;20606;-78
2021/04/24 00:07:27;;;;;;;5.97;4.50;;;9.20;46.80;;;;;;5069965;28;20199;-78
2021/04/24 00:09:54;;;;;;;10.15;5.43;;;9.20;47.00;;;;;;5085722;28;20340;-79
2021/04/24 00:12:21;;;;;;;7.13;4.95;;;9.00;47.40;;;;;;5100417;28;20668;-78
2021/04/24 00:14:47;;;;;;;8.70;6.03;;;8.70;47.50;;;;;;5102403;28;20197;-78
2021/04/24 00:17:15;;;;;;;5.80;4.93;;;8.80;47.70;;;;;;5110249;28;20201;-78
2021/04/24 00:19:41;;;;;;;8.20;5.00;;;8.80;47.70;;;;;;5090588;28;20713;-78
2021/04/24 00:22:08;;;;;;;5.30;4.47;;;8.80;47.60;;;;;;5089494;28;20230;-78
2021/04/24 00:24:34;;;;;;;10.02;4.85;;;8.80;47.50;;;;;;5094005;28;20209;-78
2021/04/24 00:27:01;;;;;;;6.25;4.32;;;8.50;48.00;;;;;;5091734;28;20272;-78
2021/04/24 00:29:27;;;;;;;4.97;4.20;;;8.20;48.20;;;;;;5092828;28;20205;-78
2021/04/24 00:31:54;;;;;;;8.00;5.57;;;8.30;48.40;;;;;;5089892;28;20199;-78
2021/04/24 00:34:21;;;;;;;5.07;4.53;;;8.20;48.40;;;;;;5089800;28;20250;-78
2021/04/24 00:36:47;;;;;;;7.18;4.93;;;8.20;48.80;;;;;;5089902;28;20208;-78
2021/04/24 00:39:13;;;;;;;8.05;4.85;;;8.10;49.00;;;;;;5077453;28;20664;-78
2021/04/24 00:41:40;;;;;;;8.70;5.03;;;8.00;49.00;;;;;;5073526;28;20673;-78
2021/04/24 00:44:06;;;;;;;5.72;4.68;;;7.90;49.20;;;;;;5098103;28;20209;-78
2021/04/24 00:46:33;;;;;;;6.50;4.90;;;7.80;49.70;;;;;;5094550;28;20202;-78
2021/04/24 00:48:59;;;;;;;8.85;4.68;;;7.70;50.00;;;;;;5088968;28;20223;-78
2021/04/24 00:51:26;;;;;;;11.07;4.25;;;7.60;50.40;;;;;;5089427;28;20198;-78
2021/04/24 00:53:53;;;;;;;9.18;5.28;;;7.60;50.60;;;;;;5099574;28;20281;-78
2021/04/24 00:56:19;;;;;;;5.93;4.57;;;7.60;50.60;;;;;;5104808;28;20281;-78
2021/04/24 00:58:46;;;;;;;7.97;4.60;;;7.40;51.00;;;;;;5090983;28;20202;-78
2021/04/24 01:01:12;;;;;;;6.55;4.82;;;7.40;51.50;;;;;;5093755;28;20270;-78
2021/04/24 01:03:39;;;;;;;6.63;4.60;;;7.40;51.50;;;;;;5093271;28;20281;-78
2021/04/24 01:06:07;;;;;;;11.43;5.75;;;7.30;51.60;;;;;;5096150;28;20283;-78
2021/04/24 01:08:36;;;;;;;5.28;4.78;;;7.30;51.70;;;;;;5094014;28;20562;-79
2021/04/24 01:11:05;;;;;;;7.43;5.18;;;7.40;51.90;;;;;;5110100;28;20644;-78
2021/04/24 01:13:33;;;;;;;8.30;5.22;;;7.50;51.20;;;;;;5097283;28;20221;-78
2021/04/24 01:16:00;;;;;;;7.78;5.60;;;7.60;50.40;;;;;;5097154;28;20203;-78
2021/04/24 01:18:28;;;;;;;6.13;5.03;;;7.50;50.70;;;;;;5088585;28;20739;-78
2021/04/24 01:20:57;;;;;;;9.32;4.10;;;7.30;50.70;;;;;;5089791;28;20213;-78
2021/04/24 01:23:26;;;;;;;6.15;5.00;;;7.30;50.70;;;;;;5108391;28;20243;-78
2021/04/24 01:25:54;;;;;;;7.53;5.55;;;7.20;50.60;;;;;;5104684;28;20203;-78
2021/04/24 01:28:22;;;;;;;7.13;5.25;;;7.20;50.60;;;;;;5093926;28;20213;-78
2021/04/24 01:30:49;;;;;;;7.22;5.18;;;7.20;51.60;;;;;;5092497;28;20639;-78
2021/04/24 01:33:16;;;;;;;6.38;5.07;;;7.10;51.30;;;;;;5104602;28;20213;-78
2021/04/24 01:35:45;;;;;;;7.32;5.15;;;7.10;51.40;;;;;;5092915;28;20191;-78
2021/04/24 01:38:16;;;;;;;6.10;5.10;;;7.20;51.20;;;;;;5074695;28;20196;-78
2021/04/24 01:40:45;;;;;;;7.78;4.93;;;7.10;51.00;;;;;;5092204;28;20256;-78
2021/04/24 01:43:12;;;;;;;8.65;5.93;;;7.00;51.00;;;;;;5090434;28;20227;-78
2021/04/24 01:45:40;;;;;;;9.77;5.85;;;6.90;52.00;;;;;;5076927;28;20587;-78
2021/04/24 01:48:08;;;;;;;9.80;4.63;;;6.80;51.40;;;;;;5095091;28;20659;-78
2021/04/24 01:50:37;;;;;;;7.88;5.50;;;6.80;51.70;;;;;;5092924;28;20199;-78
2021/04/24 01:53:07;;;;;;;7.13;4.95;;;6.70;51.20;;;;;;5093032;28;20230;-78
2021/04/24 01:55:37;;;;;;;10.65;6.53;;;6.60;51.50;;;;;;5098582;28;20203;-78
2021/04/24 01:58:08;;;;;;;8.50;5.82;;;6.80;51.80;;;;;;5091577;28;20205;-78
2021/04/24 02:00:39;;;;;;;9.23;6.28;;;6.70;51.80;;;;;;5090628;28;20194;-78
2021/04/24 02:03:10;;;;;;;9.95;5.93;;;6.80;51.30;;;;;;5091470;28;20744;-78
2021/04/24 02:05:37;;;;;;;10.80;5.68;;;6.60;51.40;;;;;;5088425;28;20548;-78
2021/04/24 02:08:09;;;;;;;10.45;6.07;;;6.50;52.30;;;;;;5071475;28;20214;-78
2021/04/24 02:10:40;;;;;;;8.27;5.45;;;6.70;52.20;;;;;;5091675;28;20225;-78
2021/04/24 02:13:11;;;;;;;9.15;5.97;;;6.60;51.60;;;;;;5096261;28;20271;-78
2021/04/24 02:15:38;;;;;;;5.35;4.85;;;6.50;51.90;;;;;;5101534;28;20696;-78
2021/04/24 02:18:06;;;;;;;11.07;5.25;;;6.40;51.80;;;;;;5097080;28;20190;-78
2021/04/24 02:20:33;;;;;;;7.18;5.90;;;6.30;51.70;;;;;;5099454;28;20194;-78
2021/04/24 02:22:59;;;;;;;7.28;5.65;;;6.40;51.80;;;;;;5091780;28;20552;-78
2021/04/24 02:25:26;;;;;;;9.18;6.10;;;6.50;52.70;;;;;;5111075;28;20197;-78
2021/04/24 02:27:52;;;;;;;9.05;6.05;;;6.50;52.20;;;;;;5093403;28;20194;-78
2021/04/24 02:30:21;;;;;;;7.95;5.82;;;6.40;52.00;;;;;;5093164;28;20241;-78
2021/04/24 02:32:48;;;;;;;9.30;7.38;;;6.30;52.00;;;;;;5096042;28;20229;-78
2021/04/24 02:35:18;;;;;;;8.23;5.55;;;6.30;52.50;;;;;;5101235;28;20236;-78
2021/04/24 02:37:44;;;;;;;9.57;6.35;;;6.30;52.50;;;;;;5110931;28;20186;-78
2021/04/24 02:40:14;;;;;;;8.90;6.00;;;6.20;52.50;;;;;;5100440;28;20206;-78
2021/04/24 02:42:41;;;;;;;11.43;5.95;;;6.10;52.50;;;;;;5098701;28;20198;-78
2021/04/24 02:45:09;;;;;;;8.90;5.32;;;6.30;53.40;;;;;;5108341;28;20809;-78
2021/04/24 02:47:37;;;;;;;7.57;5.78;;;6.40;53.00;;;;;;5099598;28;20271;-78
2021/04/24 02:50:07;;;;;;;9.98;6.10;;;6.40;52.00;;;;;;5095650;28;20207;-78
2021/04/24 02:52:33;;;;;;;9.75;6.10;;;6.20;52.00;;;;;;5093414;28;20215;-79
2021/04/24 02:55:00;;;;;;;9.10;6.00;;;6.20;52.40;;;;;;5101023;28;20663;-78
2021/04/24 02:57:26;;;;;;;6.85;5.97;;;6.20;52.30;;;;;;5090846;28;20198;-78
2021/04/24 02:59:53;;;;;;;9.77;7.10;;;6.30;53.00;;;;;;5103214;28;20248;-78
2021/04/24 03:02:19;;;;;;;9.48;7.05;;;6.20;53.50;;;;;;5093045;28;20213;-78
2021/04/24 03:04:47;;;;;;;8.80;6.68;;;6.20;53.40;;;;;;5095283;28;20197;-79
2021/04/24 03:07:14;;;;;;;6.53;5.60;;;6.30;53.30;;;;;;5090837;28;20209;-78
2021/04/24 03:09:41;;;;;;;8.40;5.28;;;6.30;52.80;;;;;;5090997;28;20533;-78
2021/04/24 03:12:09;;;;;;;11.60;7.22;;;6.30;52.70;;;;;;5090197;28;20922;-78
2021/04/24 03:14:36;;;;;;;7.80;6.70;;;6.10;52.70;;;;;;5096552;28;20651;-78
2021/04/24 03:17:02;;;;;;;16.73;6.82;;;5.80;52.80;;;;;;5092623;28;20206;-78
2021/04/24 03:19:29;;;;;;;11.25;5.57;;;6.00;53.40;;;;;;5094669;28;20226;-79
2021/04/24 03:21:56;;;;;;;11.68;6.28;;;6.00;53.70;;;;;;5090751;28;20194;-78
2021/04/24 03:24:23;;;;;;;7.68;5.47;;;6.00;53.70;;;;;;5090178;28;20223;-78
2021/04/24 03:26:50;;;;;;;10.93;6.03;;;5.90;54.10;;;;;;5087976;28;20605;-79
2021/04/24 03:29:17;;;;;;;8.93;6.15;;;5.70;54.40;;;;;;5089849;28;20705;-78
2021/04/24 03:31:44;;;;;;;8.95;6.90;;;5.70;55.00;;;;;;5099461;28;20225;-78
2021/04/24 03:34:11;;;;;;;12.65;6.78;;;5.80;55.00;;;;;;5087064;28;20193;-78
2021/04/24 03:36:38;;;;;;;10.88;6.95;;;5.80;54.80;;;;;;5099889;28;20711;-78
2021/04/24 03:39:07;;;;;;;10.63;7.53;;;5.80;55.10;;;;;;5089921;28;20201;-78
2021/04/24 03:41:33;;;;;;;11.73;7.40;;;5.60;55.50;;;;;;5094610;28;20205;-78
2021/04/24 03:44:00;;;;;;;10.32;7.50;;;5.60;55.60;;;;;;5098231;28;20292;-78
2021/04/24 03:46:27;;;;;;;9.48;7.00;;;5.60;55.50;;;;;;5104930;28;20224;-78
2021/04/24 03:48:54;;;;;;;7.80;6.25;;;5.70;55.00;;;;;;5099378;28;20233;-78
2021/04/24 03:51:21;;;;;;;9.68;7.40;;;5.70;54.30;;;;;;5101169;28;20667;-78
2021/04/24 03:53:48;;;;;;;9.45;6.30;;;5.80;54.40;;;;;;5096016;28;20214;-78
2021/04/24 03:56:16;;;;;;;10.98;6.40;;;5.70;54.20;;;;;;5101745;28;20895;-78
2021/04/24 03:58:43;;;;;;;9.93;4.88;;;5.50;54.20;;;;;;5082541;28;20200;-78
2021/04/24 04:01:10;;;;;;;9.48;6.35;;;5.60;54.50;;;;;;5088362;28;20662;-78
2021/04/24 04:03:37;;;;;;;9.40;6.25;;;5.60;54.40;;;;;;5096945;28;20544;-78
2021/04/24 04:06:04;;;;;;;8.55;6.40;;;5.50;54.90;;;;;;5091062;28;20202;-78
2021/04/24 04:08:31;;;;;;;9.88;6.38;;;5.60;54.50;;;;;;5092289;28;20202;-79
2021/04/24 04:10:57;;;;;;;15.07;9.20;;;5.50;54.10;;;;;;5092172;28;20203;-78
2021/04/24 04:13:24;;;;;;;13.35;8.07;;;5.40;54.20;;;;;;5090049;28;20218;-78
2021/04/24 04:15:51;;;;;;;14.55;8.35;;;5.30;54.50;;;;;;5091904;28;20206;-78
2021/04/24 04:18:18;;;;;;;13.75;10.27;;;5.20;54.70;;;;;;5089961;28;20252;-78
2021/04/24 04:20:47;;;;;;;27.38;13.93;;;5.20;55.00;;;;;;5085698;28;20233;-79
2021/04/24 04:23:14;;;;;;;28.10;12.52;;;5.30;54.90;;;;;;5088883;28;20194;-78
2021/04/24 04:25:41;;;;;;;22.35;12.50;;;5.40;55.00;;;;;;5089462;28;20787;-78
2021/04/24 04:28:08;;;;;;;19.77;12.65;;;5.40;55.50;;;;;;5088500;28;20200;-78
2021/04/24 04:30:36;;;;;;;25.00;15.52;;;5.50;54.90;;;;;;5087902;28;20668;-78
2021/04/24 04:33:05;;;;;;;23.27;14.63;;;5.40;54.70;;;;;;5088144;28;20226;-78
2021/04/24 04:35:32;;;;;;;24.02;14.55;;;5.30;54.60;;;;;;5088331;28;20191;-78
2021/04/24 04:37:59;;;;;;;31.25;19.83;;;5.30;54.90;;;;;;5090572;28;20222;-78
2021/04/24 04:40:26;;;;;;;36.42;19.52;;;5.20;55.20;;;;;;5089396;28;20199;-78
2021/04/24 04:42:52;;;;;;;23.60;15.38;;;5.30;56.10;;;;;;5091981;28;20233;-78
2021/04/24 04:45:19;;;;;;;19.67;12.25;;;5.00;56.70;;;;;;5092397;28;20226;-78
2021/04/24 04:47:47;;;;;;;16.92;11.48;;;4.90;58.10;;;;;;5090105;28;20678;-78
2021/04/24 04:50:17;;;;;;;19.90;12.05;;;4.90;57.90;;;;;;5093016;28;20240;-78
2021/04/24 04:52:44;;;;;;;16.70;10.18;;;5.20;58.00;;;;;;5091041;28;20543;-78
2021/04/24 04:55:11;;;;;;;16.08;10.25;;;5.50;57.40;;;;;;5094758;28;20680;-78
2021/04/24 04:57:37;;;;;;;20.52;10.05;;;5.60;57.20;;;;;;5093732;28;20286;-78
2021/04/24 05:00:05;;;;;;;18.80;9.13;;;5.70;56.80;;;;;;5091922;28;20257;-78
2021/04/24 05:02:31;;;;;;;28.02;13.63;;;5.90;56.50;;;;;;5094391;28;20202;-78
2021/04/24 05:04:59;;;;;;;18.98;10.57;;;6.10;56.00;;;;;;5105483;28;20268;-78
2021/04/24 05:07:25;;;;;;;32.17;15.10;;;6.20;55.40;;;;;;5093420;28;20854;-78
2021/04/24 05:09:52;;;;;;;30.13;16.30;;;6.20;55.50;;;;;;5101032;28;20206;-78
2021/04/24 05:12:18;;;;;;;45.50;17.50;;;6.40;55.60;;;;;;5093136;28;20226;-78
2021/04/24 05:14:45;;;;;;;31.35;13.80;;;6.40;55.20;;;;;;5102446;28;20248;-78
2021/04/24 05:17:11;;;;;;;34.67;12.95;;;6.30;54.90;;;;;;5094010;28;20194;-78
2021/04/24 05:19:38;;;;;;;19.98;12.38;;;6.40;55.10;;;;;;5095725;28;20198;-78
2021/04/24 05:22:05;;;;;;;26.02;10.60;;;6.70;55.00;;;;;;5093300;28;20198;-78
2021/04/24 05:24:32;;;;;;;23.40;11.48;;;6.70;54.70;;;;;;5104052;28;20206;-79
2021/04/24 05:26:59;;;;;;;20.73;11.70;;;6.70;54.70;;;;;;5100502;28;20206;-78
2021/04/24 05:29:25;;;;;;;21.08;11.18;;;6.60;55.10;;;;;;5093600;28;20213;-78
2021/04/24 05:31:52;;;;;;;26.02;11.88;;;6.70;55.30;;;;;;5109042;28;20195;-78
2021/04/24 05:34:18;;;;;;;28.10;10.40;;;6.80;55.40;;;;;;5102130;28;20217;-78
2021/04/24 05:36:45;;;;;;;16.95;9.27;;;7.00;55.40;;;;;;5094508;28;20199;-78
2021/04/24 05:39:12;;;;;;;21.77;9.73;;;7.00;55.60;;;;;;5091672;28;20268;-79
2021/04/24 05:41:38;;;;;;;14.95;8.02;;;7.10;55.30;;;;;;5093136;28;20194;-78
2021/04/24 05:44:06;;;;;;;15.50;8.45;;;7.30;55.20;;;;;;5099727;28;20236;-79
2021/04/24 05:46:32;;;;;;;17.75;7.43;;;7.50;54.80;;;;;;5109349;28;20199;-79
2021/04/24 05:48:59;;;;;;;12.68;6.00;;;7.70;54.00;;;;;;5104575;28;20199;-79
2021/04/24 05:51:26;;;;;;;8.60;6.68;;;7.90;53.00;;;;;;5104998;28;20233;-78
2021/04/24 05:53:54;;;;;;;13.75;8.10;;;7.90;52.80;;;;;;5092530;28;20245;-79
2021/04/24 05:56:22;;;;;;;11.05;7.30;;;8.00;52.60;;;;;;5092081;28;20285;-78
2021/04/24 05:58:50;;;;;;;12.15;8.63;;;8.10;52.10;;;;;;5098964;28;20271;-79
2021/04/24 06:01:16;;;;;;;14.27;7.57;;;8.10;51.70;;;;;;5096778;28;20202;-78
2021/04/24 06:03:43;;;;;;;13.57;7.93;;;8.20;51.30;;;;;;5093972;28;20198;-78
2021/04/24 06:06:09;;;;;;;8.65;6.35;;;8.30;51.20;;;;;;5109674;28;20959;-79
2021/04/24 06:08:36;;;;;;;9.60;6.93;;;8.60;51.10;;;;;;5108399;28;20205;-78
2021/04/24 06:11:02;;;;;;;8.70;6.80;;;8.70;50.70;;;;;;5110219;28;20259;-78
2021/04/24 06:13:30;;;;;;;10.70;6.97;;;8.60;50.10;;;;;;5103263;28;20222;-79
2021/04/24 06:15:57;;;;;;;11.40;6.80;;;8.70;50.50;;;;;;5111848;28;20198;-78
2021/04/24 06:18:23;;;;;;;17.85;7.20;;;8.80;50.60;;;;;;5109064;28;20187;-79
2021/04/24 06:20:50;;;;;;;13.90;7.75;;;9.00;50.60;;;;;;5099806;28;20651;-79
2021/04/24 06:23:16;;;;;;;8.52;6.45;;;9.20;50.40;;;;;;5106685;28;20184;-78
2021/04/24 06:25:43;;;;;;;11.50;6.50;;;9.10;50.20;;;;;;5098281;28;20236;-79
2021/04/24 06:28:09;;;;;;;10.63;6.75;;;9.30;50.40;;;;;;5105823;28;20203;-80
2021/04/24 06:30:37;;;;;;;11.43;6.93;;;9.40;50.30;;;;;;5104367;28;20205;-80
2021/04/24 06:33:04;;;;;;;9.30;6.75;;;9.50;49.20;;;;;;5091857;28;20215;-80
2021/04/24 06:35:31;;;;;;;10.23;6.60;;;9.70;49.10;;;;;;5101730;28;20656;-80
2021/04/24 06:37:58;;;;;;;7.18;6.43;;;9.80;48.70;;;;;;5112360;28;20232;-80
2021/04/24 06:40:25;;;;;;;12.77;6.53;;;10.00;48.10;;;;;;5107859;28;20223;-80
2021/04/24 06:42:52;;;;;;;10.90;6.57;;;10.00;48.10;;;;;;5093716;28;20203;-80
2021/04/24 06:45:18;;;;;;;12.10;7.13;;;10.10;47.50;;;;;;5106745;28;20202;-80
2021/04/24 06:47:48;;;;;;;13.57;6.03;;;10.20;47.40;;;;;;5100764;28;20232;-80
2021/04/24 06:50:15;;;;;;;12.40;6.38;;;10.40;47.30;;;;;;5089220;28;20652;-80
2021/04/24 06:52:42;;;;;;;7.75;6.50;;;10.50;46.90;;;;;;5096695;28;20242;-79
2021/04/24 06:55:10;;;;;;;7.30;5.95;;;10.70;46.60;;;;;;5091259;28;20224;-80
2021/04/24 06:57:37;;;;;;;8.38;6.13;;;10.80;46.60;;;;;;5100103;28;20707;-80
2021/04/24 07:00:05;;;;;;;10.65;6.75;;;11.00;46.80;;;;;;5102549;28;20203;-80
2021/04/24 07:02:32;;;;;;;10.75;6.95;;;11.00;47.20;;;;;;5089949;28;20277;-80
2021/04/24 07:04:59;;;;;;;10.55;5.70;;;11.30;47.10;;;;;;5091015;28;20226;-80
2021/04/24 07:07:26;;;;;;;11.90;6.82;;;11.40;46.40;;;;;;5107835;28;20206;-80
2021/04/24 07:09:52;;;;;;;11.15;6.85;;;11.50;46.30;;;;;;5098069;28;20285;-81
2021/04/24 07:12:19;;;;;;;12.43;6.68;;;11.50;46.40;;;;;;5092498;28;20675;-81
2021/04/24 07:14:45;;;;;;;10.25;7.82;;;11.60;46.80;;;;;;5093961;28;20198;-81
2021/04/24 07:17:11;;;;;;;12.27;7.18;;;11.70;46.60;;;;;;5104365;28;20259;-81
2021/04/24 07:19:38;;;;;;;8.75;6.65;;;11.80;46.00;;;;;;5101474;28;20210;-81
2021/04/24 07:22:05;;;;;;;8.52;6.18;;;11.90;46.40;;;;;;5096199;28;20202;-81
2021/04/24 07:24:32;;;;;;;8.02;6.05;;;12.00;46.00;;;;;;5094513;28;20255;-82
2021/04/24 07:26:58;;;;;;;10.18;6.80;;;12.00;46.00;;;;;;5093841;28;20199;-81
2021/04/24 07:29:25;;;;;;;7.97;6.30;;;12.20;46.70;;;;;;5092111;28;20206;-80
2021/04/24 07:31:51;;;;;;;11.70;6.47;;;12.10;44.90;;;;;;5101368;28;20201;-81
2021/04/24 07:34:17;;;;;;;8.23;5.90;;;12.20;45.10;;;;;;5092965;28;20202;-80
2021/04/24 07:36:44;;;;;;;8.35;5.70;;;12.40;44.80;;;;;;5108433;28;20629;-80
2021/04/24 07:39:11;;;;;;;8.85;6.43;;;12.20;43.80;;;;;;5097181;28;20230;-80
2021/04/24 07:41:38;;;;;;;7.90;6.00;;;12.50;43.90;;;;;;5096958;28;20213;-81
2021/04/24 07:44:05;;;;;;;8.20;5.73;;;12.70;43.80;;;;;;5091588;28;20620;-81
2021/04/24 07:46:31;;;;;;;7.23;5.30;;;12.80;41.70;;;;;;5098262;28;20622;-81
2021/04/24 07:48:58;;;;;;;8.60;6.47;;;13.00;42.80;;;;;;5100567;28;21073;-81
2021/04/24 07:51:24;;;;;;;7.80;6.37;;;13.20;42.00;;;;;;5091575;28;21059;-81
2021/04/24 07:53:51;;;;;;;8.60;6.17;;;13.30;42.40;;;;;;5099272;28;20648;-81
2021/04/24 07:56:18;;;;;;;14.20;6.80;;;13.50;42.30;;;;;;5099448;28;21084;-80
2021/04/24 07:58:44;;;;;;;8.37;6.50;;;13.70;41.70;;;;;;5087606;28;20229;-81
2021/04/24 08:01:11;;;;;;;10.83;6.27;;;13.80;41.70;;;;;;5095748;28;20743;-80
2021/04/24 08:03:37;;;;;;;9.40;5.90;;;13.90;41.50;;;;;;5094995;28;20618;-81
2021/04/24 08:06:04;;;;;;;8.53;6.33;;;14.00;40.60;;;;;;5091994;28;20659;-81
2021/04/24 08:08:31;;;;;;;10.60;6.60;;;14.10;41.60;;;;;;5091650;28;20769;-81
2021/04/24 08:10:57;;;;;;;8.27;6.70;;;14.20;42.30;;;;;;5096661;28;20190;-81
2021/04/24 08:13:25;;;;;;;8.63;7.07;;;14.30;41.70;;;;;;5094331;28;20765;-81
2021/04/24 08:15:51;;;;;;;8.20;6.70;;;14.50;41.40;;;;;;5108236;28;20622;-80
2021/04/24 08:18:18;;;;;;;9.60;6.83;;;14.40;41.20;;;;;;5096471;28;20632;-81
2021/04/24 08:20:44;;;;;;;9.60;6.63;;;14.60;41.60;;;;;;5095227;28;20616;-81
2021/04/24 08:23:11;;;;;;;7.70;6.33;;;14.70;41.10;;;;;;5097315;28;21192;-81
2021/04/24 08:25:37;;;;;;;9.20;7.07;;;14.30;40.10;;;;;;5098762;28;21010;-81
2021/04/24 08:28:04;;;;;;;7.83;6.60;;;14.50;40.60;;;;;;5107247;28;20659;-81
2021/04/24 08:30:31;;;;;;;11.37;6.63;;;14.70;41.00;;;;;;5099623;28;20628;-81
2021/04/24 08:32:58;;;;;;;8.70;5.90;;;14.60;40.90;;;;;;5092669;28;20710;-80
2021/04/24 08:35:25;;;;;;;10.63;6.20;;;14.90;40.00;;;;;;5104213;28;20666;-81
2021/04/24 08:37:56;;;;;;;8.00;6.40;;;15.10;40.40;;;;;;5090361;28;20631;-81
2021/04/24 08:40:22;;;;;;;8.60;6.40;;;15.50;40.20;;;;;;5098729;28;20625;-80
2021/04/24 08:42:49;;;;;;;9.17;6.87;;;15.70;38.80;;;;;;5093717;28;20661;-83
2021/04/24 08:45:18;;;;;;;7.50;6.70;;;15.80;39.00;;;;;;5097628;28;20656;-80
2021/04/24 08:47:48;;;;;;;10.10;7.27;;;15.30;37.90;;;;;;5094879;28;20621;-80
2021/04/24 08:50:17;;;;;;;7.20;6.07;;;15.50;39.40;;;;;;5111506;28;21026;-80
2021/04/24 08:52:44;;;;;;;9.17;6.00;;;15.80;39.30;;;;;;5095079;28;20683;-80
2021/04/24 08:55:16;;;;;;;9.57;7.20;;;15.80;39.30;;;;;;5102412;28;20627;-81
2021/04/24 08:57:43;;;;;;;11.37;7.20;;;16.10;38.80;;;;;;5102816;28;20663;-82
2021/04/24 09:00:10;;;;;;;9.70;6.67;;;16.30;38.10;;;;;;5095923;28;20608;-83
2021/04/24 09:02:39;;;;;;;8.83;7.80;;;16.40;38.60;;;;;;5093828;28;21049;-83
2021/04/24 09:05:08;;;;;;;12.17;6.47;;;16.50;38.20;;;;;;5107658;28;21007;-83
2021/04/24 09:07:35;;;;;;;11.70;7.23;;;16.60;36.90;;;;;;5097021;28;21187;-83
2021/04/24 09:10:03;;;;;;;9.50;6.37;;;16.50;38.70;;;;;;5103230;28;20625;-83
2021/04/24 09:12:39;;;;;;;13.70;7.33;;;16.60;38.20;;;;;;5096274;28;20705;-83
2021/04/24 09:15:11;;;;;;;10.87;7.33;;;16.80;38.10;;;;;;5096598;28;20623;-83
2021/04/24 09:17:55;;;;;;;11.67;6.60;;;16.40;37.50;;;;;;5111289;28;20650;-83
2021/04/24 09:20:24;;;;;;;7.53;6.30;;;16.20;36.90;;;;;;5095608;28;20620;-84
2021/04/24 09:23:05;;;;;;;8.90;6.33;;;16.50;37.10;;;;;;5106572;28;20676;-83
2021/04/24 09:25:34;;;;;;;8.23;6.83;;;16.80;37.90;;;;;;5103319;28;20627;-83
2021/04/24 09:28:01;;;;;;;8.87;7.00;;;16.80;35.10;;;;;;5096366;28;20638;-83
2021/04/24 09:30:30;;;;;;;7.37;6.43;;;16.70;35.90;;;;;;5099235;28;20627;-85
2021/04/24 09:33:03;;;;;;;7.87;6.33;;;17.10;35.70;;;;;;5095535;28;21082;-83
2021/04/24 09:35:42;;;;;;;8.70;6.87;;;17.30;34.00;;;;;;5104432;28;20999;-83
2021/04/24 09:38:10;;;;;;;8.47;6.30;;;17.60;34.60;;;;;;5108783;28;20622;-80
2021/04/24 09:40:37;;;;;;;7.50;6.20;;;17.30;32.50;;;;;;5103767;28;21255;-85
2021/04/24 09:43:05;;;;;;;8.97;6.40;;;17.40;34.80;;;;;;5093055;28;20613;-87
2021/04/24 09:45:34;;;;;;;10.40;6.73;;;17.50;35.40;;;;;;5103381;28;20626;-84
2021/04/24 09:48:02;;;;;;;7.20;5.73;;;17.60;34.70;;;;;;5094101;28;20646;-85
2021/04/24 09:50:35;;;;;;;10.07;6.70;;;17.80;34.80;;;;;;5095175;28;20632;-84
2021/04/24 09:53:18;;;;;;;8.80;7.20;;;17.90;33.10;;;;;;5113048;28;20658;-84
2021/04/24 09:55:46;;;;;;;11.93;6.93;;;18.10;33.20;;;;;;5107541;28;21180;-83
2021/04/24 09:58:29;;;;;;;8.73;7.73;;;17.90;31.80;;;;;;5107242;28;20628;-83
2021/04/24 10:00:57;;;;;;;10.30;5.97;;;18.20;32.90;;;;;;5095582;28;21180;-83
2021/04/24 10:03:44;;;;;;;8.10;7.23;;;18.10;32.70;;;;;;5071870;28;20705;-84
2021/04/24 10:06:30;;;;;;;9.93;7.33;;;18.10;33.10;;;;;;5091020;28;20666;-84
2021/04/24 10:09:24;;;;;;;7.70;6.93;;;17.60;32.30;;;;;;5106751;28;20630;-85
2021/04/24 10:12:03;;;;;;;8.80;6.47;;;18.10;34.80;;;;;;5063889;28;20631;-88
2021/04/24 10:14:33;;;;;;;7.90;6.07;;;18.40;33.00;;;;;;5108490;28;20710;-85
2021/04/24 10:17:00;;;;;;;9.33;6.87;;;18.70;32.60;;;;;;5101664;28;20631;-86
2021/04/24 10:19:31;;;;;;;9.30;7.10;;;18.80;32.60;;;;;;5110592;28;20619;-85
2021/04/24 10:21:59;;;;;;;8.50;7.10;;;18.90;34.90;;;;;;5079496;28;20632;-86
2021/04/24 10:24:28;;;;;;;8.63;6.20;;;19.10;33.80;;;;;;5112367;28;20619;-85
2021/04/24 10:26:56;;;;;;;11.60;7.00;;;19.30;32.90;;;;;;5102418;28;20657;-83
2021/04/24 10:29:23;;;;;;;12.23;7.37;;;19.50;31.10;;;;;;5090804;28;20633;-83
2021/04/24 10:31:50;;;;;;;11.93;7.27;;;19.50;30.40;;;;;;5089362;28;20625;-83
2021/04/24 10:34:17;;;;;;;8.80;6.30;;;19.60;30.70;;;;;;5090681;28;20641;-84
2021/04/24 10:36:44;;;;;;;8.13;7.20;;;19.70;31.50;;;;;;5085817;28;20617;-85
2021/04/24 10:39:17;;;;;;;8.33;7.10;;;19.80;31.40;;;;;;5091162;28;20625;-84
2021/04/24 10:41:47;;;;;;;12.30;8.03;;;19.70;32.10;;;;;;5100731;28;20614;-83
2021/04/24 10:44:16;;;;;;;7.17;5.63;;;19.90;30.90;;;;;;5102619;28;20662;-85
2021/04/24 10:46:47;;;;;;;9.77;6.60;;;20.10;30.70;;;;;;5105122;28;20609;-83
2021/04/24 10:49:25;;;;;;;9.10;8.13;;;20.10;31.30;;;;;;5104784;28;20618;-83
2021/04/24 10:52:17;;;;;;;9.93;7.53;;;20.20;30.80;;;;;;5071100;28;20611;-84
2021/04/24 10:55:25;;;;;;;10.27;8.23;;;20.40;31.80;;;;;;5107637;28;21189;-83
2021/04/24 10:57:54;;;;;;;9.50;7.80;;;20.30;33.60;;;;;;5091658;28;21243;-84
2021/04/24 11:00:24;;;;;;;9.47;7.10;;;20.10;32.80;;;;;;5092765;28;20635;-85
2021/04/24 11:02:51;;;;;;;9.43;7.30;;;20.20;30.90;;;;;;5090286;28;21009;-84
2021/04/24 11:05:28;;;;;;;8.70;7.77;;;20.40;30.70;;;;;;5093898;28;20624;-77
2021/04/24 11:08:26;;;;;;;8.83;7.63;;;20.40;30.20;;;;;;5081766;28;20723;-85
2021/04/24 11:10:59;;;;;;;9.80;8.57;;;20.20;31.60;;;;;;4981736;28;20628;-87
2021/04/24 11:13:28;;;;;;;8.80;7.60;;;19.20;30.60;;;;;;5076162;28;20666;-86
2021/04/24 11:15:55;;;;;;;12.03;8.57;;;19.60;32.50;;;;;;5107973;28;20617;-91
2021/04/24 11:18:25;;;;;;;8.73;7.83;;;19.90;32.90;;;;;;5100561;28;20661;-89
2021/04/24 11:20:58;;;;;;;9.90;8.47;;;20.20;32.30;;;;;;5108355;28;20965;-89
2021/04/24 11:23:55;;;;;;;10.50;8.67;;;20.50;31.40;;;;;;5102883;28;21030;-87
2021/04/24 11:26:48;;;;;;;10.30;7.37;;;20.80;32.00;;;;;;5047749;28;20636;-90
2021/04/24 11:29:15;;;;;;;9.13;7.90;;;20.90;31.10;;;;;;5101428;28;20633;-87
2021/04/24 11:32:00;;;;;;;9.67;7.80;;;20.90;31.50;;;;;;5081992;28;20623;-88
2021/04/24 11:34:36;;;;;;;11.60;8.13;;;21.10;31.80;;;;;;5095765;28;20654;-89
2021/04/24 11:37:24;;;;;;;14.87;8.50;;;21.40;30.80;;;;;;5094733;28;21230;-90
2021/04/24 11:40:27;;;;;;;12.30;7.80;;;21.90;30.00;;;;;;5110996;28;20954;-90
2021/04/24 11:43:26;;;;;;;9.10;7.60;;;22.00;29.40;;;;;;5070999;28;20613;-88
2021/04/24 11:46:08;;;;;;;10.20;8.73;;;21.80;30.00;;;;;;5087863;28;20621;-86
2021/04/24 11:49:03;;;;;;;10.43;8.20;;;21.50;30.50;;;;;;5101910;28;20623;-89
2021/04/24 11:51:53;;;;;;;9.77;8.23;;;22.20;30.20;;;;;;5096654;28;20625;-89
2021/04/24 11:54:27;;;;;;;10.00;8.20;;;22.90;30.10;;;;;;5109245;28;20650;-90
2021/04/24 11:56:58;;;;;;;9.50;7.50;;;23.30;29.20;;;;;;5090378;28;20634;-91
2021/04/24 11:59:27;;;;;;;8.63;7.80;;;23.00;29.00;;;;;;5104212;28;20634;-87
2021/04/24 12:02:02;;;;;;;9.67;8.77;;;23.90;29.50;;;;;;5108560;28;21213;-87
2021/04/24 12:04:32;;;;;;;12.83;9.30;;;25.00;28.60;;;;;;5101650;28;20618;-88
2021/04/24 12:07:07;;;;;;;10.20;9.20;;;26.70;28.20;;;;;;5107546;28;20611;-89
2021/04/24 12:09:54;;;;;;;10.47;8.47;;;28.70;26.10;;;;;;5090493;28;20786;-90
2021/04/24 12:12:40;;;;;;;;;;;;;;;;;;;;;
2021/04/24 12:15:19;;;;;;;9.63;8.63;;;30.10;25.60;;;;;;5101334;28;20619;-90
2021/04/24 12:17:50;;;;;;;10.40;8.87;;;31.00;24.50;;;;;;5094288;28;20727;-90
2021/04/24 12:20:22;;;;;;;10.13;9.13;;;30.30;24.50;;;;;;5107594;28;20781;-90
2021/04/24 12:22:49;;;;;;;11.07;9.90;;;32.20;23.90;;;;;;5090463;28;20655;-89
2021/04/24 12:25:16;;;;;;;9.63;8.67;;;32.20;23.70;;;;;;5091367;28;20625;-90
2021/04/24 12:27:44;;;;;;;9.80;8.80;;;31.40;24.10;;;;;;5099954;28;20644;-89
2021/04/24 12:30:16;;;;;;;11.03;9.93;;;31.80;23.60;;;;;;5110171;28;20619;-88
2021/04/24 12:32:46;;;;;;;9.93;8.93;;;32.20;23.70;;;;;;5091393;28;20629;-90
2021/04/24 12:35:19;;;;;;;10.37;9.40;;;32.90;22.60;;;;;;5099766;28;20777;-88
2021/04/24 12:37:48;;;;;;;9.97;8.97;;;33.70;22.30;;;;;;5096235;28;20651;-89
2021/04/24 12:40:18;;;;;;;10.77;9.17;;;34.50;21.90;;;;;;5105710;28;20617;-88
2021/04/24 12:42:45;;;;;;;9.87;8.80;;;35.80;21.80;;;;;;5108651;28;20657;-88
2021/04/24 12:45:19;;;;;;;9.63;8.70;;;37.70;20.90;;;;;;5096203;28;21203;-87
2021/04/24 12:47:47;;;;;;;11.07;10.07;;;37.30;19.70;;;;;;5086954;28;21139;-88
2021/04/24 12:50:20;;;;;;;10.17;9.20;;;36.90;19.50;;;;;;5094442;28;21286;-88
2021/04/24 12:52:50;;;;;;;10.10;9.20;;;35.70;19.40;;;;;;5091901;28;20728;-87
2021/04/24 12:55:17;;;;;;;10.40;9.50;;;38.00;20.80;;;;;;5111066;28;20781;-88
2021/04/24 12:57:57;;;;;;;9.80;8.80;;;39.00;20.20;;;;;;5090629;28;20673;-89